createdAt,value
2018-04-14T00:03:34.246Z,12.20
2018-04-14T00:07:37.552Z,12.10
2018-04-14T00:11:40.864Z,12.10
2018-04-14T00:15:43.396Z,12.10
2018-04-14T00:19:45.908Z,12.10
2018-04-14T00:23:49.217Z,12.00
2018-04-14T00:27:52.522Z,12.00
2018-04-14T00:31:55.819Z,11.90
2018-04-14T00:35:59.122Z,11.90
2018-04-14T00:40:02.449Z,11.90
2018-04-14T00:44:05.708Z,11.80
2018-04-14T00:48:08.238Z,11.90
2018-04-14T00:52:10.792Z,11.80
2018-04-14T00:56:13.331Z,11.80
2018-04-14T01:00:15.872Z,11.80
2018-04-14T01:04:19.167Z,11.70
2018-04-14T01:08:22.476Z,11.70
2018-04-14T01:12:25.783Z,11.70
2018-04-14T01:16:29.084Z,11.60
2018-04-14T01:20:32.379Z,11.60
2018-04-14T01:24:35.659Z,11.60
2018-04-14T01:28:38.204Z,11.50
2018-04-14T01:32:40.738Z,11.50
2018-04-14T01:36:43.281Z,11.50
2018-04-14T01:40:45.816Z,11.50
2018-04-14T01:44:48.324Z,11.50
2018-04-14T01:48:50.860Z,11.50
2018-04-14T01:52:53.400Z,11.40
2018-04-14T01:56:55.936Z,11.50
2018-04-14T02:00:58.511Z,11.40
2018-04-14T02:05:01.024Z,11.40
2018-04-14T02:09:03.569Z,11.40
2018-04-14T02:13:06.112Z,11.30
2018-04-14T02:17:09.415Z,11.30
2018-04-14T02:21:12.723Z,11.30
2018-04-14T02:25:15.252Z,11.20
2018-04-14T02:29:17.801Z,11.30
2018-04-14T02:33:20.345Z,11.30
2018-04-14T02:37:22.889Z,11.30
2018-04-14T02:41:25.424Z,11.30
2018-04-14T02:45:27.945Z,11.30
2018-04-14T02:49:30.486Z,11.30
2018-04-14T02:53:33.027Z,11.30
2018-04-14T02:57:35.568Z,11.30
2018-04-14T03:01:39.825Z,11.30
2018-04-14T03:05:43.135Z,11.30
2018-04-14T03:09:45.648Z,11.20
2018-04-14T03:13:48.188Z,11.20
2018-04-14T03:17:50.730Z,11.20
2018-04-14T03:21:53.279Z,11.20
2018-04-14T03:25:55.816Z,11.20
2018-04-14T03:29:59.101Z,11.20
2018-04-14T03:34:01.638Z,11.10
2018-04-14T03:38:04.186Z,11.20
2018-04-14T03:42:06.728Z,11.20
2018-04-14T03:46:09.266Z,11.20
2018-04-14T03:50:12.548Z,11.20
2018-04-14T03:54:15.088Z,11.10
2018-04-14T03:58:18.392Z,11.20
2018-04-14T04:02:20.937Z,11.10
2018-04-14T04:06:24.239Z,11.20
2018-04-14T04:10:27.519Z,11.20
2018-04-14T04:14:30.056Z,11.10
2018-04-14T04:18:44.484Z,11.20
2018-04-14T04:22:58.768Z,11.20
2018-04-14T04:27:01.302Z,11.10
2018-04-14T04:31:04.651Z,11.10
2018-04-14T04:35:07.961Z,11.10
2018-04-14T04:39:10.496Z,11.10
2018-04-14T04:43:13.032Z,11.10
2018-04-14T04:47:15.567Z,11.10
2018-04-14T04:51:18.092Z,11.10
2018-04-14T04:55:21.405Z,11.10
2018-04-14T04:59:23.941Z,11.10
2018-04-14T05:03:26.480Z,11.10
2018-04-14T05:07:29.020Z,11.10
2018-04-14T05:11:31.551Z,11.10
2018-04-14T05:15:34.084Z,11.10
2018-04-14T05:19:36.640Z,11.10
2018-04-14T05:23:39.212Z,11.10
2018-04-14T05:27:42.522Z,11.10
2018-04-14T05:31:45.065Z,11.10
2018-04-14T05:35:48.347Z,11.20
2018-04-14T05:39:50.894Z,11.10
2018-04-14T05:43:53.432Z,11.20
2018-04-14T05:47:55.983Z,11.20
2018-04-14T05:51:58.524Z,11.20
2018-04-14T05:56:01.813Z,11.30
2018-04-14T06:00:05.171Z,11.30
2018-04-14T06:04:07.688Z,11.30
2018-04-14T06:08:10.224Z,11.30
2018-04-14T06:12:12.768Z,11.30
2018-04-14T06:16:16.070Z,11.30
2018-04-14T06:20:19.388Z,11.40
2018-04-14T06:24:22.696Z,11.40
2018-04-14T06:28:25.231Z,11.30
2018-04-14T06:32:27.785Z,11.40
2018-04-14T06:36:30.323Z,11.40
2018-04-14T06:40:32.863Z,11.40
2018-04-14T06:44:35.419Z,11.40
2018-04-14T06:48:37.996Z,11.40
2018-04-14T06:52:40.545Z,11.40
2018-04-14T06:56:43.061Z,11.40
2018-04-14T07:00:46.371Z,11.40
2018-04-14T07:04:49.675Z,11.40
2018-04-14T07:08:52.215Z,11.40
2018-04-14T07:12:54.747Z,11.40
2018-04-14T07:16:58.046Z,11.50
2018-04-14T07:21:01.361Z,11.50
2018-04-14T07:25:03.901Z,11.50
2018-04-14T07:29:06.449Z,11.60
2018-04-14T07:33:08.983Z,11.70
2018-04-14T07:37:11.494Z,11.80
2018-04-14T07:41:14.040Z,11.90
2018-04-14T07:45:16.574Z,12.00
2018-04-14T07:49:19.113Z,12.20
2018-04-14T07:53:21.653Z,12.20
2018-04-14T07:57:24.216Z,12.30
2018-04-14T08:01:27.495Z,12.30
2018-04-14T08:05:30.029Z,12.30
2018-04-14T08:09:32.568Z,12.30
2018-04-14T08:13:35.106Z,12.20
2018-04-14T08:17:37.645Z,12.20
2018-04-14T08:21:40.931Z,12.30
2018-04-14T08:25:43.492Z,12.20
2018-04-14T08:29:46.453Z,12.30
2018-04-14T08:33:49.099Z,12.30
2018-04-14T08:37:51.653Z,12.30
2018-04-14T08:41:54.203Z,12.30
2018-04-14T08:45:56.746Z,12.30
2018-04-14T08:49:59.297Z,12.30
2018-04-14T08:54:01.903Z,12.30
2018-04-14T08:58:04.420Z,12.30
2018-04-14T09:02:06.936Z,12.20
2018-04-14T09:06:09.474Z,12.20
2018-04-14T09:10:12.013Z,12.20
2018-04-14T09:14:15.339Z,12.10
2018-04-14T09:18:17.877Z,12.00
2018-04-14T09:22:20.393Z,12.00
2018-04-14T09:26:22.960Z,12.00
2018-04-14T09:30:25.493Z,12.00
2018-04-14T09:34:28.043Z,12.00
2018-04-14T09:38:30.578Z,12.10
2018-04-14T09:42:33.105Z,12.20
2018-04-14T09:46:35.658Z,12.20
2018-04-14T09:50:38.960Z,12.40
2018-04-14T09:54:41.500Z,12.40
2018-04-14T09:58:44.040Z,12.40
2018-04-14T10:02:47.324Z,12.50
2018-04-14T10:06:49.877Z,12.50
2018-04-14T10:10:52.430Z,12.60
2018-04-14T10:14:54.981Z,12.60
2018-04-14T10:18:57.518Z,12.70
2018-04-14T10:23:00.036Z,12.80
2018-04-14T10:27:02.629Z,12.80
2018-04-14T10:31:05.141Z,12.90
2018-04-14T10:35:08.449Z,13.00
2018-04-14T10:39:11.860Z,13.00
2018-04-14T10:43:14.382Z,13.10
2018-04-14T10:47:16.928Z,13.20
2018-04-14T10:51:19.470Z,13.20
2018-04-14T10:55:22.014Z,13.30
2018-04-14T10:59:24.551Z,13.40
2018-04-14T11:03:27.179Z,13.40
2018-04-14T11:07:29.736Z,13.50
2018-04-14T11:11:33.035Z,13.70
2018-04-14T11:15:35.577Z,13.70
2018-04-14T11:19:38.107Z,13.90
2018-04-14T11:23:41.392Z,14.10
2018-04-14T11:27:43.935Z,14.10
2018-04-14T11:31:46.489Z,14.20
2018-04-14T11:35:49.824Z,14.50
2018-04-14T11:39:52.368Z,14.40
2018-04-14T11:43:54.887Z,14.50
2018-04-14T11:47:57.453Z,14.60
2018-04-14T11:52:00.752Z,14.70
2018-04-14T11:56:04.056Z,14.80
2018-04-14T12:00:07.359Z,14.90
2018-04-14T12:04:10.652Z,14.80
2018-04-14T12:08:13.961Z,14.90
2018-04-14T12:12:17.272Z,15.10
2018-04-14T12:16:20.578Z,15.10
2018-04-14T12:20:23.124Z,15.00
2018-04-14T12:24:25.664Z,15.10
2018-04-14T12:28:28.197Z,15.20
2018-04-14T12:32:30.741Z,15.10
2018-04-14T12:36:33.270Z,15.20
2018-04-14T12:40:35.848Z,15.20
2018-04-14T12:44:38.391Z,15.20
2018-04-14T12:48:41.128Z,15.30
2018-04-14T12:52:44.459Z,15.40
2018-04-14T12:56:47.768Z,15.40
2018-04-14T13:00:50.303Z,15.40
2018-04-14T13:04:52.852Z,15.60
2018-04-14T13:08:55.373Z,15.70
2018-04-14T13:12:57.926Z,15.80
2018-04-14T13:17:00.481Z,15.80
2018-04-14T13:21:03.026Z,15.90
2018-04-14T13:25:05.577Z,16.10
2018-04-14T13:29:08.101Z,16.10
2018-04-14T13:33:10.643Z,16.20
2018-04-14T13:37:13.180Z,16.30
2018-04-14T13:41:15.722Z,16.30
2018-04-14T13:45:18.274Z,16.40
2018-04-14T13:49:21.553Z,16.50
2018-04-14T13:53:24.094Z,16.50
2018-04-14T13:57:26.627Z,16.50
2018-04-14T14:01:29.168Z,16.60
2018-04-14T14:05:31.700Z,16.60
2018-04-14T14:09:34.232Z,16.70
2018-04-14T14:13:36.764Z,16.70
2018-04-14T14:17:39.303Z,16.80
2018-04-14T14:21:41.848Z,16.80
2018-04-14T14:25:44.392Z,16.80
2018-04-14T14:29:46.916Z,16.80
2018-04-14T14:33:50.229Z,16.90
2018-04-14T14:37:53.549Z,16.90
2018-04-14T14:41:56.089Z,16.80
2018-04-14T14:45:58.624Z,16.80
2018-04-14T14:50:06.739Z,16.80
2018-04-14T14:54:09.277Z,16.80
2018-04-14T14:58:11.816Z,16.70
2018-04-14T15:02:14.365Z,16.70
2018-04-14T15:06:17.679Z,16.70
2018-04-14T15:10:20.979Z,16.80
2018-04-14T15:14:24.268Z,16.80
2018-04-14T15:18:27.573Z,16.90
2018-04-14T15:22:30.875Z,16.90
2018-04-14T15:26:34.182Z,17.00
2018-04-14T15:30:37.491Z,17.10
2018-04-14T15:34:40.826Z,17.10
2018-04-14T15:38:44.096Z,17.20
2018-04-14T15:42:47.414Z,17.20
2018-04-14T15:46:49.956Z,17.20
2018-04-14T15:50:52.498Z,17.30
2018-04-14T15:54:55.020Z,17.20
2018-04-14T15:58:57.564Z,17.30
2018-04-14T16:03:00.097Z,17.30
2018-04-14T16:07:02.653Z,17.30
2018-04-14T16:11:05.216Z,17.30
2018-04-14T16:15:07.789Z,17.30
2018-04-14T16:19:10.507Z,17.20
2018-04-14T16:23:13.876Z,17.20
2018-04-14T16:27:17.185Z,17.20
2018-04-14T16:31:19.756Z,17.10
2018-04-14T16:35:22.304Z,17.20
2018-04-14T16:39:24.852Z,17.10
2018-04-14T16:43:27.395Z,17.10
2018-04-14T16:47:29.932Z,17.00
2018-04-14T16:51:32.472Z,16.90
2018-04-14T16:55:34.987Z,16.70
2018-04-14T16:59:37.525Z,16.70
2018-04-14T17:03:40.066Z,16.50
2018-04-14T17:07:42.610Z,16.40
2018-04-14T17:11:45.157Z,16.20
2018-04-14T17:15:47.675Z,16.10
2018-04-14T17:19:50.218Z,15.90
2018-04-14T17:23:52.771Z,15.70
2018-04-14T17:27:56.078Z,15.40
2018-04-14T17:31:58.637Z,15.40
2018-04-14T17:36:01.167Z,15.20
2018-04-14T17:40:03.716Z,15.10
2018-04-14T17:44:07.024Z,14.90
2018-04-14T17:48:10.329Z,14.80
2018-04-14T17:52:13.633Z,14.70
2018-04-14T17:56:16.946Z,14.60
2018-04-14T18:00:19.476Z,14.50
2018-04-14T18:04:22.039Z,14.40
2018-04-14T18:08:24.574Z,14.40
2018-04-14T18:12:27.148Z,14.30
2018-04-14T18:16:29.680Z,14.20
2018-04-14T18:20:32.195Z,14.10
2018-04-14T18:24:34.728Z,14.00
2018-04-14T18:28:37.264Z,13.80
2018-04-14T18:32:39.860Z,13.80
2018-04-14T18:36:42.397Z,13.70
2018-04-14T18:40:44.942Z,13.60
2018-04-14T18:44:47.482Z,13.40
2018-04-14T18:48:50.784Z,13.20
2018-04-14T18:52:53.328Z,13.20
2018-04-14T18:56:56.684Z,13.00
2018-04-14T19:00:59.180Z,13.00
2018-04-14T19:05:01.717Z,13.00
2018-04-14T19:09:04.247Z,12.90
2018-04-14T19:13:06.810Z,12.80
2018-04-14T19:17:10.176Z,12.70
2018-04-14T19:21:13.581Z,12.60
2018-04-14T19:25:16.927Z,12.60
2018-04-14T19:29:19.501Z,12.50
2018-04-14T19:33:22.056Z,12.50
2018-04-14T19:37:24.600Z,12.40
2018-04-14T19:41:27.125Z,12.40
2018-04-14T19:45:29.660Z,12.30
2018-04-14T19:49:32.204Z,12.20
2018-04-14T19:53:35.517Z,12.20
2018-04-14T19:57:38.059Z,12.10
2018-04-14T20:01:40.575Z,12.10
2018-04-14T20:05:43.892Z,11.90
2018-04-14T20:09:46.443Z,11.90
2018-04-14T20:13:48.996Z,11.90
2018-04-14T20:17:51.536Z,11.80
2018-04-14T20:21:54.841Z,11.70
2018-04-14T20:25:57.377Z,11.70
2018-04-14T20:29:59.920Z,11.60
2018-04-14T20:34:02.506Z,11.60
2018-04-14T20:38:05.048Z,11.50
2018-04-14T20:42:07.578Z,11.50
2018-04-14T20:46:10.103Z,11.40
2018-04-14T20:50:12.657Z,11.40
2018-04-14T20:54:15.194Z,11.30
2018-04-14T20:58:17.741Z,11.30
2018-04-14T21:02:20.300Z,11.30
2018-04-14T21:06:22.827Z,11.20
2018-04-14T21:10:25.371Z,11.20
2018-04-14T21:14:27.932Z,11.10
2018-04-14T21:18:31.240Z,11.00
2018-04-14T21:22:34.548Z,11.00
2018-04-14T21:26:37.829Z,10.90
2018-04-14T21:30:40.367Z,10.80
2018-04-14T21:34:42.917Z,10.80
2018-04-14T21:38:46.233Z,10.80
2018-04-14T21:42:49.535Z,10.70
2018-04-14T21:46:52.074Z,10.70
2018-04-14T21:50:54.623Z,10.70
2018-04-14T21:54:57.176Z,10.60
2018-04-14T21:59:00.486Z,10.60
2018-04-14T22:03:04.100Z,10.60
2018-04-14T22:07:07.385Z,10.50
2018-04-14T22:11:09.956Z,10.50
2018-04-14T22:15:12.512Z,10.50
2018-04-14T22:19:15.054Z,10.40
2018-04-14T22:23:18.370Z,10.40
2018-04-14T22:27:20.893Z,10.30
2018-04-14T22:31:23.435Z,10.30
2018-04-14T22:35:25.991Z,10.30
2018-04-14T22:39:28.526Z,10.30
2018-04-14T22:43:31.059Z,10.30
2018-04-14T22:47:33.580Z,10.30
2018-04-14T22:51:36.135Z,10.20
2018-04-14T22:55:42.203Z,10.20
2018-04-14T22:59:44.732Z,10.20
2018-04-14T23:03:47.263Z,10.20
2018-04-14T23:07:49.813Z,10.10
2018-04-14T23:11:52.339Z,10.00
2018-04-14T23:15:54.880Z,10.00
2018-04-14T23:19:57.416Z,10.00
2018-04-14T23:23:59.945Z,9.90
2018-04-14T23:28:02.480Z,9.80
2018-04-14T23:32:04.992Z,9.70
2018-04-14T23:36:07.525Z,9.70
2018-04-14T23:40:10.059Z,9.60
2018-04-14T23:44:12.591Z,9.60
2018-04-14T23:48:15.132Z,9.50
2018-04-14T23:52:17.648Z,9.50
2018-04-14T23:56:20.202Z,9.40
